Time;durP1;ratioP1;P1;durP2;ratioP2;P2;SDS_P1;SDS_P2;PMS_P1;PMS_P2;Temp;Humidity;BMP_temperature;BMP_pressure;BME280_temperature;BME280_humidity;BME280_pressure;Samples;Min_cycle;Max_cycle;Signal;HPM_P1;HPM_P2
2023/10/31 00:01:57;;;;;;;1.70;1.40;;;12.80;98.00;;;;;;5013279;28;20458;-68
2023/10/31 00:04:26;;;;;;;1.30;1.20;;;12.80;98.00;;;;;;5013195;28;20481;-68
2023/10/31 00:06:53;;;;;;;2.53;1.47;;;12.70;98.00;;;;;;5013160;28;20514;-69
2023/10/31 00:09:21;;;;;;;1.30;1.20;;;12.80;98.00;;;;;;5012890;28;20488;-68
2023/10/31 00:11:50;;;;;;;2.20;1.40;;;12.70;98.00;;;;;;5013064;28;20456;-69
2023/10/31 00:14:18;;;;;;;1.43;1.40;;;12.60;98.00;;;;;;5013082;28;20486;-69
2023/10/31 00:16:45;;;;;;;1.33;1.17;;;12.60;98.00;;;;;;4995645;28;20458;-69
2023/10/31 00:19:14;;;;;;;3.87;1.50;;;12.50;98.00;;;;;;5012717;28;20462;-68
2023/10/31 00:21:42;;;;;;;1.40;1.30;;;12.50;98.00;;;;;;5012923;28;20972;-68
2023/10/31 00:24:09;;;;;;;2.23;1.30;;;12.50;98.00;;;;;;4993923;28;20507;-69
2023/10/31 00:26:37;;;;;;;1.50;1.27;;;12.60;98.00;;;;;;5012796;28;20456;-69
2023/10/31 00:29:04;;;;;;;1.50;1.33;;;12.60;98.00;;;;;;5012687;28;20490;-70
2023/10/31 00:31:31;;;;;;;1.93;1.50;;;12.50;98.00;;;;;;5012872;28;20479;-69
2023/10/31 00:33:58;;;;;;;2.40;1.30;;;12.50;98.00;;;;;;5013366;28;20457;-69
2023/10/31 00:36:27;;;;;;;2.90;1.40;;;12.50;98.00;;;;;;5013449;28;20446;-69
2023/10/31 00:38:54;;;;;;;1.40;1.30;;;12.60;98.00;;;;;;5013282;28;20776;-69
2023/10/31 00:41:21;;;;;;;1.97;1.23;;;12.50;98.00;;;;;;4995696;28;20456;-69
2023/10/31 00:43:48;;;;;;;2.00;1.30;;;12.40;98.00;;;;;;5013011;28;20452;-68
2023/10/31 00:46:15;;;;;;;1.50;1.20;;;12.30;98.00;;;;;;4995796;28;20455;-69
2023/10/31 00:48:42;;;;;;;1.47;1.17;;;12.30;98.00;;;;;;5012924;28;21005;-69
2023/10/31 00:51:09;;;;;;;1.50;1.10;;;12.30;98.00;;;;;;5012953;28;20460;-69
2023/10/31 00:53:41;;;;;;;1.40;1.20;;;12.30;98.00;;;;;;5013050;28;20928;-68
2023/10/31 00:56:09;;;;;;;1.50;1.20;;;12.40;98.00;;;;;;5013135;28;20464;-68
2023/10/31 00:58:36;;;;;;;1.20;1.10;;;12.40;98.00;;;;;;5012144;28;20452;-69
2023/10/31 01:01:03;;;;;;;1.40;1.20;;;12.30;98.00;;;;;;5012756;28;20927;-68
2023/10/31 01:03:30;;;;;;;1.40;1.17;;;12.30;98.00;;;;;;5013055;28;20463;-68
2023/10/31 01:05:57;;;;;;;1.20;1.20;;;12.40;98.00;;;;;;5012845;28;20461;-69
2023/10/31 01:08:24;;;;;;;2.13;1.30;;;12.40;98.00;;;;;;4995199;28;20483;-68
2023/10/31 01:10:53;;;;;;;1.37;1.20;;;12.50;98.00;;;;;;5012449;28;20522;-68
2023/10/31 01:13:20;;;;;;;1.30;1.20;;;12.40;98.00;;;;;;5012766;28;20452;-68
2023/10/31 01:15:47;;;;;;;1.43;1.20;;;12.40;98.00;;;;;;5012309;28;20460;-69
2023/10/31 01:18:14;;;;;;;1.20;1.10;;;12.30;98.00;;;;;;5012536;28;20454;-69
2023/10/31 01:20:41;;;;;;;1.57;1.17;;;12.40;98.00;;;;;;5012060;28;20961;-69
2023/10/31 01:23:08;;;;;;;1.83;1.13;;;12.50;98.00;;;;;;5012541;28;20850;-68
2023/10/31 01:25:35;;;;;;;2.30;1.43;;;12.60;98.00;;;;;;5012291;28;20463;-69
2023/10/31 01:28:04;;;;;;;1.40;1.20;;;12.80;98.00;;;;;;5012308;28;20459;-68
2023/10/31 01:30:31;;;;;;;1.40;1.20;;;12.80;98.00;;;;;;4994461;28;20494;-68
2023/10/31 01:32:58;;;;;;;1.30;1.20;;;12.80;98.00;;;;;;4994928;28;20455;-69
2023/10/31 01:35:25;;;;;;;1.20;1.17;;;12.80;98.00;;;;;;5012243;28;20812;-68
2023/10/31 01:37:52;;;;;;;1.53;1.30;;;12.70;98.00;;;;;;5012278;28;20462;-68
2023/10/31 01:40:19;;;;;;;1.37;1.10;;;12.70;98.00;;;;;;5012156;28;20486;-69
2023/10/31 01:42:46;;;;;;;1.50;1.30;;;12.70;98.00;;;;;;5012061;28;20497;-68
2023/10/31 01:45:14;;;;;;;4.23;1.20;;;12.60;98.00;;;;;;5011539;28;20451;-68
2023/10/31 01:47:43;;;;;;;1.60;1.23;;;12.70;98.00;;;;;;5011292;28;20449;-68
2023/10/31 01:50:12;;;;;;;1.40;1.20;;;12.60;98.00;;;;;;5011393;28;20648;-68
2023/10/31 01:52:39;;;;;;;1.40;1.20;;;12.60;98.00;;;;;;5011719;28;20455;-68
2023/10/31 01:55:07;;;;;;;1.53;1.37;;;12.60;98.00;;;;;;5012389;28;20533;-69
2023/10/31 01:57:34;;;;;;;1.60;1.30;;;12.60;98.00;;;;;;5012203;28;20463;-68
2023/10/31 02:00:02;;;;;;;2.70;1.40;;;12.60;98.00;;;;;;5011979;28;20803;-69
2023/10/31 02:02:34;;;;;;;1.60;1.33;;;12.60;98.00;;;;;;5012215;28;20540;-68
2023/10/31 02:05:01;;;;;;;1.47;1.10;;;12.40;98.00;;;;;;5012267;28;20876;-68
2023/10/31 02:07:29;;;;;;;1.30;1.10;;;12.40;98.00;;;;;;5012023;28;20469;-69
2023/10/31 02:09:56;;;;;;;2.03;1.40;;;12.30;98.00;;;;;;5012702;28;20491;-68
2023/10/31 02:12:33;;;;;;;1.30;1.30;;;12.40;98.00;;;;;;5016084;28;21129;-68
2023/10/31 02:15:00;;;;;;;1.40;1.20;;;12.40;98.00;;;;;;4998196;28;20470;-68
2023/10/31 02:17:27;;;;;;;1.40;1.20;;;12.30;98.00;;;;;;4998663;28;20972;-69
2023/10/31 02:19:56;;;;;;;1.30;1.17;;;12.20;98.00;;;;;;5015708;28;20521;-68
2023/10/31 02:22:24;;;;;;;1.30;1.20;;;12.30;98.00;;;;;;5016003;28;20927;-68
2023/10/31 02:24:52;;;;;;;1.60;1.20;;;12.40;98.00;;;;;;5015721;28;20511;-68
2023/10/31 02:27:20;;;;;;;1.40;1.20;;;12.30;98.00;;;;;;4998561;28;20458;-68
2023/10/31 02:29:47;;;;;;;1.27;1.17;;;12.30;98.00;;;;;;5015467;28;20491;-68
2023/10/31 02:32:14;;;;;;;1.87;1.30;;;12.20;98.00;;;;;;4998536;28;20468;-69
2023/10/31 02:34:41;;;;;;;1.40;1.30;;;12.20;98.00;;;;;;5015904;28;20457;-68
2023/10/31 02:37:08;;;;;;;1.80;1.40;;;12.10;98.00;;;;;;5016108;28;20460;-68
2023/10/31 02:39:38;;;;;;;1.53;1.20;;;12.10;98.00;;;;;;5015541;28;20460;-68
2023/10/31 02:42:06;;;;;;;1.77;1.27;;;12.10;98.00;;;;;;5015544;28;20525;-68
2023/10/31 02:44:33;;;;;;;1.73;1.20;;;12.10;98.00;;;;;;5015424;28;20454;-68
2023/10/31 02:47:00;;;;;;;1.60;1.20;;;12.10;98.00;;;;;;5015313;28;20465;-69
2023/10/31 02:49:27;;;;;;;1.70;1.17;;;12.00;98.00;;;;;;4997733;28;20482;-69
2023/10/31 02:51:54;;;;;;;1.40;1.30;;;12.00;98.00;;;;;;5015370;28;20458;-68
2023/10/31 02:54:21;;;;;;;1.80;1.30;;;12.10;98.00;;;;;;5015223;28;20460;-68
2023/10/31 02:56:49;;;;;;;1.40;1.20;;;12.10;98.00;;;;;;5014843;28;21047;-69
2023/10/31 02:59:16;;;;;;;1.30;1.20;;;12.10;98.00;;;;;;4981375;28;21014;-68
2023/10/31 03:01:43;;;;;;;1.40;1.20;;;12.00;98.00;;;;;;5015152;28;20451;-69
2023/10/31 03:04:10;;;;;;;2.77;1.33;;;12.00;98.00;;;;;;5015005;28;20451;-68
2023/10/31 03:06:45;;;;;;;1.30;1.10;;;11.80;98.00;;;;;;5014899;28;20462;-68
2023/10/31 03:09:12;;;;;;;1.53;1.33;;;11.70;98.00;;;;;;5014621;28;20494;-68
2023/10/31 03:11:39;;;;;;;1.20;1.20;;;11.50;98.00;;;;;;5014876;28;20948;-68
2023/10/31 03:14:08;;;;;;;2.07;1.50;;;11.40;98.00;;;;;;5014834;28;20880;-68
2023/10/31 03:16:35;;;;;;;1.47;1.20;;;11.30;98.00;;;;;;5014842;28;20446;-68
2023/10/31 03:19:02;;;;;;;1.30;1.17;;;11.40;98.00;;;;;;5014320;28;20837;-68
2023/10/31 03:21:29;;;;;;;2.10;1.40;;;11.30;98.00;;;;;;5013955;28;20451;-68
2023/10/31 03:24:05;;;;;;;2.90;1.20;;;11.40;98.00;;;;;;5014580;28;20458;-67
2023/10/31 03:26:32;;;;;;;2.03;1.30;;;11.40;98.00;;;;;;5014610;28;20882;-68
2023/10/31 03:28:59;;;;;;;1.37;1.20;;;11.50;98.00;;;;;;5014223;28;20461;-69
2023/10/31 03:31:28;;;;;;;1.67;1.30;;;11.50;98.00;;;;;;5014421;28;20989;-68
2023/10/31 03:33:55;;;;;;;1.73;1.40;;;11.70;98.00;;;;;;5014322;28;20461;-68
2023/10/31 03:36:22;;;;;;;1.40;1.20;;;11.70;98.00;;;;;;5014435;28;20451;-68
2023/10/31 03:38:49;;;;;;;1.40;1.27;;;11.70;98.00;;;;;;5014291;28;20564;-68
2023/10/31 03:41:16;;;;;;;1.70;1.30;;;11.80;98.00;;;;;;5014413;28;20520;-68
2023/10/31 03:43:43;;;;;;;1.50;1.27;;;11.70;98.00;;;;;;5014267;28;20466;-68
2023/10/31 03:46:12;;;;;;;1.57;1.40;;;11.70;98.00;;;;;;5030154;28;20457;-68
2023/10/31 03:48:40;;;;;;;2.13;1.37;;;11.60;98.00;;;;;;5034239;28;20467;-68
2023/10/31 03:51:07;;;;;;;2.10;1.40;;;11.60;98.00;;;;;;5033783;28;20485;-68
2023/10/31 03:53:34;;;;;;;1.40;1.20;;;11.60;98.00;;;;;;5033950;28;20457;-68
2023/10/31 03:56:01;;;;;;;2.70;1.30;;;11.60;98.00;;;;;;5016387;28;20484;-69
2023/10/31 03:58:36;;;;;;;1.90;1.40;;;11.50;98.00;;;;;;5033952;28;20460;-68
2023/10/31 04:01:03;;;;;;;1.40;1.30;;;11.60;98.00;;;;;;5033940;28;20461;-68
2023/10/31 04:03:30;;;;;;;1.70;1.30;;;11.60;98.00;;;;;;5033985;28;20544;-68
2023/10/31 04:05:59;;;;;;;2.07;1.50;;;11.50;98.00;;;;;;5033845;28;20823;-68
2023/10/31 04:08:26;;;;;;;3.60;1.50;;;11.40;98.00;;;;;;5033919;28;20790;-68
2023/10/31 04:10:53;;;;;;;2.57;1.43;;;11.50;98.00;;;;;;5033541;28;20481;-68
2023/10/31 04:13:20;;;;;;;1.30;1.20;;;11.50;98.00;;;;;;5033755;28;20808;-68
2023/10/31 04:15:47;;;;;;;1.50;1.30;;;11.50;98.00;;;;;;5033683;28;20455;-67
2023/10/31 04:18:14;;;;;;;2.13;1.40;;;11.40;98.00;;;;;;5033917;28;20807;-68
2023/10/31 04:20:44;;;;;;;1.43;1.30;;;11.30;98.00;;;;;;5033114;28;21127;-68
2023/10/31 04:23:12;;;;;;;1.30;1.13;;;11.30;98.00;;;;;;5032892;28;20495;-68
2023/10/31 04:25:42;;;;;;;1.30;1.20;;;11.20;98.00;;;;;;5033407;28;21058;-68
2023/10/31 04:28:09;;;;;;;1.30;1.30;;;11.30;98.00;;;;;;5033158;28;20884;-69
2023/10/31 04:30:36;;;;;;;1.20;1.20;;;11.30;98.00;;;;;;5032885;28;20483;-68
2023/10/31 04:33:05;;;;;;;2.03;1.30;;;11.40;98.00;;;;;;5033234;28;20454;-68
2023/10/31 04:35:32;;;;;;;2.93;1.40;;;11.30;98.00;;;;;;5015662;28;20451;-68
2023/10/31 04:37:59;;;;;;;2.07;1.20;;;11.30;98.00;;;;;;5032879;28;20944;-68
2023/10/31 04:40:27;;;;;;;6.50;1.50;;;11.30;98.00;;;;;;5032707;28;20466;-68
2023/10/31 04:42:55;;;;;;;1.30;1.20;;;11.40;98.00;;;;;;5032926;28;20452;-68
2023/10/31 04:45:22;;;;;;;2.37;1.20;;;11.30;98.00;;;;;;5032874;28;20507;-68
2023/10/31 04:47:50;;;;;;;1.60;1.30;;;11.30;98.00;;;;;;5015227;28;20938;-68
2023/10/31 04:50:17;;;;;;;1.67;1.20;;;11.30;98.00;;;;;;5032284;28;20484;-68
2023/10/31 04:52:45;;;;;;;1.80;1.30;;;11.30;98.00;;;;;;5032789;28;21165;-68
2023/10/31 04:55:12;;;;;;;1.93;1.40;;;11.20;98.00;;;;;;5032796;28;20843;-68
2023/10/31 04:57:40;;;;;;;1.60;1.20;;;11.20;98.00;;;;;;5032642;28;20467;-68
2023/10/31 05:00:08;;;;;;;1.70;1.27;;;11.20;98.00;;;;;;5032495;28;20466;-68
2023/10/31 05:02:35;;;;;;;2.27;1.40;;;11.20;98.00;;;;;;5032558;28;20972;-68
2023/10/31 05:05:03;;;;;;;1.30;1.30;;;11.10;98.00;;;;;;5032541;28;20944;-68
2023/10/31 05:07:32;;;;;;;1.40;1.23;;;11.20;98.00;;;;;;5032571;28;21001;-68
2023/10/31 05:10:02;;;;;;;1.40;1.20;;;11.20;98.00;;;;;;5015096;28;20822;-68
2023/10/31 05:12:30;;;;;;;1.40;1.33;;;11.20;98.00;;;;;;5032492;28;20511;-68
2023/10/31 05:14:58;;;;;;;1.30;1.20;;;11.20;98.00;;;;;;5032406;28;20448;-68
2023/10/31 05:17:25;;;;;;;2.40;1.30;;;11.20;98.00;;;;;;5032448;28;20465;-68
2023/10/31 05:19:52;;;;;;;1.50;1.30;;;11.20;98.00;;;;;;5032039;28;20885;-68
2023/10/31 05:22:19;;;;;;;3.30;1.40;;;11.30;98.00;;;;;;5032361;28;20460;-68
2023/10/31 05:24:46;;;;;;;1.77;1.33;;;11.30;98.00;;;;;;5032220;28;20510;-68
2023/10/31 05:27:13;;;;;;;1.70;1.30;;;11.20;98.00;;;;;;5032124;28;20458;-68
2023/10/31 05:29:41;;;;;;;1.53;1.20;;;11.20;98.00;;;;;;5031840;28;20942;-68
2023/10/31 05:32:12;;;;;;;3.00;1.33;;;11.20;98.00;;;;;;5032093;28;20452;-68
2023/10/31 05:34:39;;;;;;;5.30;1.93;;;11.10;98.00;;;;;;5014624;28;20459;-68
2023/10/31 05:37:06;;;;;;;1.20;1.10;;;11.10;98.00;;;;;;5014893;28;21024;-68
2023/10/31 05:39:36;;;;;;;1.40;1.10;;;11.10;98.00;;;;;;5031962;28;20486;-69
2023/10/31 05:42:03;;;;;;;1.70;1.33;;;11.00;98.00;;;;;;5031936;28;20453;-68
2023/10/31 05:44:30;;;;;;;3.50;1.43;;;11.10;98.00;;;;;;5031485;28;20461;-68
2023/10/31 05:46:57;;;;;;;1.33;1.10;;;11.20;98.00;;;;;;5014633;28;20509;-68
2023/10/31 05:49:26;;;;;;;1.37;1.27;;;11.10;98.00;;;;;;5014566;28;20941;-68
2023/10/31 05:51:54;;;;;;;1.77;1.30;;;11.10;98.00;;;;;;5031939;28;20497;-68
2023/10/31 05:54:21;;;;;;;1.60;1.30;;;11.10;98.00;;;;;;5031942;28;20452;-68
2023/10/31 05:56:48;;;;;;;1.67;1.30;;;11.10;98.00;;;;;;5014339;28;20459;-68
2023/10/31 05:59:15;;;;;;;3.47;1.30;;;11.10;98.00;;;;;;5032079;28;20526;-63
2023/10/31 06:01:43;;;;;;;1.40;1.30;;;11.10;98.00;;;;;;5032049;28;20461;-63
2023/10/31 06:04:10;;;;;;;1.40;1.30;;;11.20;98.00;;;;;;5031796;28;20448;-63
2023/10/31 06:06:40;;;;;;;1.80;1.30;;;11.20;98.00;;;;;;5032033;28;20451;-63
2023/10/31 06:09:08;;;;;;;1.60;1.40;;;11.10;98.00;;;;;;5031543;28;20455;-63
2023/10/31 06:11:36;;;;;;;1.30;1.23;;;11.10;98.00;;;;;;5031632;28;20505;-63
2023/10/31 06:14:03;;;;;;;1.40;1.20;;;11.10;98.00;;;;;;5031847;28;20456;-63
2023/10/31 06:16:31;;;;;;;1.60;1.30;;;11.10;98.00;;;;;;5031850;28;20501;-63
2023/10/31 06:18:58;;;;;;;2.53;1.30;;;11.10;98.00;;;;;;5031473;28;20462;-63
2023/10/31 06:21:25;;;;;;;2.03;1.40;;;11.00;98.00;;;;;;5031385;28;20845;-63
2023/10/31 06:23:53;;;;;;;1.57;1.40;;;11.10;98.00;;;;;;5031560;28;20454;-63
2023/10/31 06:26:20;;;;;;;3.37;1.40;;;11.10;98.00;;;;;;5031387;28;20449;-63
2023/10/31 06:28:47;;;;;;;1.40;1.23;;;11.10;98.00;;;;;;5031535;28;20482;-63
2023/10/31 06:31:14;;;;;;;2.70;1.50;;;11.10;98.00;;;;;;5031095;28;20483;-63
2023/10/31 06:33:42;;;;;;;1.77;1.50;;;11.10;98.00;;;;;;5031461;28;20820;-63
2023/10/31 06:36:09;;;;;;;1.40;1.30;;;11.10;98.00;;;;;;5031416;28;20461;-63
2023/10/31 06:38:37;;;;;;;1.60;1.50;;;11.10;98.00;;;;;;5031403;28;20956;-63
2023/10/31 06:41:06;;;;;;;3.17;1.50;;;11.10;98.00;;;;;;5031231;28;20459;-62
2023/10/31 06:43:33;;;;;;;1.70;1.50;;;11.10;98.00;;;;;;5013715;28;20453;-63
2023/10/31 06:46:00;;;;;;;1.87;1.47;;;11.10;98.00;;;;;;5031457;28;20458;-63
2023/10/31 06:48:27;;;;;;;1.70;1.30;;;11.00;98.00;;;;;;5031332;28;20464;-63
2023/10/31 06:50:54;;;;;;;1.60;1.40;;;11.10;98.00;;;;;;5013608;28;20484;-63
2023/10/31 06:53:21;;;;;;;1.80;1.20;;;11.10;98.00;;;;;;5013815;28;20525;-63
2023/10/31 06:55:49;;;;;;;1.60;1.40;;;11.10;98.00;;;;;;5031206;28;20456;-63
2023/10/31 06:58:17;;;;;;;1.70;1.40;;;11.10;98.00;;;;;;5016656;28;20514;-63
2023/10/31 07:00:45;;;;;;;1.47;1.30;;;11.20;98.00;;;;;;5034825;28;20602;-62
2023/10/31 07:03:14;;;;;;;1.90;1.30;;;11.20;98.00;;;;;;5034963;28;20866;-63
2023/10/31 07:05:42;;;;;;;1.80;1.30;;;11.30;98.00;;;;;;5017538;28;20448;-62
2023/10/31 07:08:09;;;;;;;2.53;1.40;;;11.30;98.00;;;;;;5034701;28;20515;-63
2023/10/31 07:10:36;;;;;;;3.20;1.60;;;11.20;98.00;;;;;;5034453;28;20494;-63
2023/10/31 07:13:03;;;;;;;1.70;1.30;;;11.30;98.00;;;;;;5034815;28;20848;-63
2023/10/31 07:15:31;;;;;;;3.07;1.43;;;11.20;98.00;;;;;;5034697;28;20458;-63
2023/10/31 07:17:58;;;;;;;1.57;1.27;;;11.30;98.00;;;;;;5035056;28;20866;-63
2023/10/31 07:20:25;;;;;;;1.83;1.40;;;11.30;98.00;;;;;;5034420;28;20469;-63
2023/10/31 07:22:52;;;;;;;1.73;1.47;;;11.30;98.00;;;;;;5034663;28;20458;-63
2023/10/31 07:25:20;;;;;;;1.40;1.20;;;11.30;98.00;;;;;;5034540;28;20809;-63
2023/10/31 07:27:47;;;;;;;1.50;1.50;;;11.30;98.00;;;;;;5034729;28;20524;-62
2023/10/31 07:30:15;;;;;;;1.50;1.30;;;11.30;98.00;;;;;;5034372;28;20506;-62
2023/10/31 07:32:45;;;;;;;1.63;1.40;;;11.40;98.00;;;;;;5034501;28;20448;-63
2023/10/31 07:35:12;;;;;;;1.70;1.30;;;11.40;98.00;;;;;;5034406;28;20458;-63
2023/10/31 07:37:40;;;;;;;3.43;1.50;;;11.30;98.00;;;;;;5034437;28;20523;-63
2023/10/31 07:40:07;;;;;;;1.37;1.37;;;11.40;98.00;;;;;;5034582;28;20820;-63
2023/10/31 07:42:34;;;;;;;1.47;1.23;;;11.30;98.00;;;;;;5034341;28;20946;-63
2023/10/31 07:45:02;;;;;;;1.60;1.40;;;11.40;98.00;;;;;;5034190;28;20871;-63
2023/10/31 07:47:29;;;;;;;1.30;1.23;;;11.40;98.00;;;;;;5034060;28;20933;-63
2023/10/31 07:49:57;;;;;;;4.73;1.50;;;11.40;98.00;;;;;;5033894;28;20523;-63
2023/10/31 07:52:35;;;;;;;1.50;1.40;;;11.40;98.00;;;;;;5033721;28;20490;-63
2023/10/31 07:55:02;;;;;;;1.30;1.30;;;11.40;98.00;;;;;;5033909;28;20937;-62
2023/10/31 07:57:29;;;;;;;1.80;1.40;;;11.40;98.00;;;;;;5033785;28;20446;-63
2023/10/31 07:59:56;;;;;;;1.90;1.20;;;11.50;98.00;;;;;;5033596;28;20889;-63
2023/10/31 08:02:23;;;;;;;1.73;1.20;;;11.50;98.00;;;;;;5016022;28;20455;-63
2023/10/31 08:04:50;;;;;;;4.63;1.50;;;11.50;98.00;;;;;;5033527;28;20458;-63
2023/10/31 08:07:19;;;;;;;1.20;1.20;;;11.50;98.00;;;;;;5015756;28;20941;-63
2023/10/31 08:09:46;;;;;;;1.30;1.13;;;11.50;98.00;;;;;;5033378;28;20461;-63
2023/10/31 08:12:13;;;;;;;3.20;1.23;;;11.60;98.00;;;;;;5033175;28;20480;-63
2023/10/31 08:14:40;;;;;;;2.07;1.53;;;11.70;98.00;;;;;;5032828;28;20964;-63
2023/10/31 08:17:09;;;;;;;2.53;1.40;;;11.70;98.00;;;;;;5032858;28;20505;-63
2023/10/31 08:19:36;;;;;;;1.53;1.50;;;11.80;98.00;;;;;;5032586;28;20460;-63
2023/10/31 08:22:03;;;;;;;6.03;1.50;;;11.80;98.00;;;;;;5033186;28;20456;-63
2023/10/31 08:24:31;;;;;;;1.97;1.50;;;11.70;98.00;;;;;;5033146;28;20447;-64
2023/10/31 08:26:59;;;;;;;2.23;1.57;;;11.80;98.00;;;;;;5033346;28;20457;-63
2023/10/31 08:29:26;;;;;;;1.83;1.60;;;11.90;98.00;;;;;;5033214;28;20449;-64
2023/10/31 08:31:53;;;;;;;2.13;1.43;;;11.90;98.00;;;;;;5033182;28;20490;-63
2023/10/31 08:34:20;;;;;;;2.97;1.60;;;12.00;98.00;;;;;;5033110;28;20484;-63
2023/10/31 08:36:52;;;;;;;1.77;1.20;;;12.10;98.00;;;;;;5015488;28;20462;-63
2023/10/31 08:39:19;;;;;;;1.90;1.43;;;12.10;98.00;;;;;;5015275;28;20453;-63
2023/10/31 08:41:58;;;;;;;1.57;1.40;;;12.20;98.00;;;;;;5032977;28;20562;-63
2023/10/31 08:44:28;;;;;;;2.27;1.60;;;12.20;98.00;;;;;;5032971;28;20453;-63
2023/10/31 08:46:55;;;;;;;1.90;1.50;;;12.10;98.00;;;;;;5032824;28;20505;-63
2023/10/31 08:49:22;;;;;;;3.87;1.87;;;12.10;98.00;;;;;;5024970;28;20455;-63
2023/10/31 08:51:49;;;;;;;2.23;1.50;;;12.20;98.00;;;;;;4995336;28;20543;-63
2023/10/31 08:54:16;;;;;;;2.70;1.30;;;12.30;98.00;;;;;;5012912;28;20469;-63
2023/10/31 08:56:43;;;;;;;3.43;1.60;;;12.40;98.00;;;;;;5012834;28;20460;-63
2023/10/31 08:59:12;;;;;;;8.43;1.50;;;12.50;98.00;;;;;;5029404;28;20456;-63
2023/10/31 09:01:39;;;;;;;2.80;1.50;;;12.50;98.00;;;;;;5032296;28;20519;-63
2023/10/31 09:04:06;;;;;;;1.70;1.53;;;12.50;98.00;;;;;;5032748;28;20457;-63
2023/10/31 09:06:33;;;;;;;2.53;1.70;;;12.60;98.00;;;;;;5014503;28;20453;-63
2023/10/31 09:09:00;;;;;;;1.70;1.40;;;12.60;98.00;;;;;;5032482;28;20457;-63
2023/10/31 09:11:28;;;;;;;2.10;1.40;;;12.60;98.00;;;;;;5032550;28;20574;-63
2023/10/31 09:13:55;;;;;;;3.13;1.90;;;12.80;98.00;;;;;;5015194;28;20964;-62
2023/10/31 09:16:23;;;;;;;1.60;1.50;;;12.80;98.00;;;;;;5032582;28;20502;-63
2023/10/31 09:18:52;;;;;;;3.50;1.50;;;12.80;98.00;;;;;;5032115;28;20516;-63
2023/10/31 09:21:19;;;;;;;2.27;1.80;;;13.00;98.00;;;;;;5031134;28;20507;-63
2023/10/31 09:23:46;;;;;;;1.50;1.30;;;13.00;98.00;;;;;;5031779;28;20982;-63
2023/10/31 09:26:14;;;;;;;2.63;1.40;;;13.00;98.00;;;;;;5031864;28;20456;-63
2023/10/31 09:28:49;;;;;;;2.67;1.50;;;12.90;98.00;;;;;;5031785;28;20621;-63
2023/10/31 09:31:16;;;;;;;1.93;1.50;;;13.00;98.00;;;;;;5031478;28;20493;-63
2023/10/31 09:33:45;;;;;;;1.60;1.60;;;13.10;98.00;;;;;;5031494;28;20470;-64
2023/10/31 09:36:12;;;;;;;1.57;1.40;;;13.20;98.00;;;;;;5031504;28;20457;-63
2023/10/31 09:38:39;;;;;;;3.97;1.60;;;13.40;98.00;;;;;;5031387;28;20473;-63
2023/10/31 09:41:08;;;;;;;2.97;1.57;;;13.50;98.00;;;;;;5031417;28;20446;-63
2023/10/31 09:43:35;;;;;;;4.70;1.57;;;13.50;98.00;;;;;;5031304;28;20508;-63
2023/10/31 09:46:03;;;;;;;5.07;1.50;;;13.50;98.00;;;;;;5031212;28;20456;-63
2023/10/31 09:48:31;;;;;;;2.40;1.50;;;13.60;98.00;;;;;;5031075;28;20447;-64
2023/10/31 09:51:00;;;;;;;1.83;1.43;;;13.70;98.00;;;;;;5031286;28;20486;-63
2023/10/31 09:53:30;;;;;;;2.27;1.67;;;13.90;98.00;;;;;;5031300;28;20454;-63
2023/10/31 09:55:57;;;;;;;3.00;1.53;;;13.90;98.00;;;;;;5031114;28;20452;-63
2023/10/31 09:58:24;;;;;;;1.40;1.40;;;13.90;98.00;;;;;;5031365;28;20793;-63
2023/10/31 10:00:52;;;;;;;4.93;1.57;;;13.90;98.00;;;;;;5030969;28;20462;-63
2023/10/31 10:03:19;;;;;;;2.40;1.50;;;13.90;98.00;;;;;;5031013;28;20455;-63
2023/10/31 10:05:47;;;;;;;2.13;1.70;;;14.00;98.00;;;;;;5013430;28;20860;-63
2023/10/31 10:08:16;;;;;;;1.70;1.47;;;14.10;98.00;;;;;;5031219;28;20863;-63
2023/10/31 10:10:45;;;;;;;1.70;1.47;;;14.20;98.00;;;;;;5030942;28;20777;-64
2023/10/31 10:13:12;;;;;;;2.37;1.53;;;14.20;98.00;;;;;;5031200;28;20688;-63
2023/10/31 10:15:48;;;;;;;1.80;1.57;;;14.30;98.00;;;;;;5013308;28;20459;-63
2023/10/31 10:18:31;;;;;;;6.00;1.60;;;14.30;98.00;;;;;;5031234;28;20888;-63
2023/10/31 10:20:59;;;;;;;2.60;1.53;;;14.40;98.00;;;;;;5027985;28;20877;-63
2023/10/31 10:23:28;;;;;;;2.20;1.43;;;14.60;98.00;;;;;;5030585;28;20465;-65
2023/10/31 10:25:57;;;;;;;4.37;1.50;;;14.50;98.00;;;;;;5030745;28;20461;-63
2023/10/31 10:28:24;;;;;;;2.87;1.60;;;14.30;98.00;;;;;;5030950;28;20466;-63
2023/10/31 10:30:53;;;;;;;2.43;1.63;;;14.30;98.00;;;;;;5014020;28;20871;-63
2023/10/31 10:33:22;;;;;;;2.87;1.47;;;14.20;98.00;;;;;;5034568;28;20490;-63
2023/10/31 10:35:49;;;;;;;1.57;1.47;;;14.10;98.00;;;;;;5034509;28;20957;-63
2023/10/31 10:38:18;;;;;;;1.93;1.43;;;13.90;98.00;;;;;;5034599;28;20875;-63
2023/10/31 10:40:48;;;;;;;2.10;1.80;;;13.90;98.00;;;;;;5034410;28;20540;-63
2023/10/31 10:43:22;;;;;;;3.60;1.83;;;13.70;98.00;;;;;;5034382;28;20461;-62
2023/10/31 10:45:55;;;;;;;2.57;1.87;;;13.60;98.00;;;;;;5033961;28;20552;-63
2023/10/31 10:48:25;;;;;;;1.77;1.60;;;13.50;98.00;;;;;;5016910;28;20454;-63
2023/10/31 10:51:00;;;;;;;2.47;1.57;;;13.50;98.00;;;;;;5024711;28;20451;-59
2023/10/31 10:53:35;;;;;;;2.27;1.57;;;13.60;98.00;;;;;;5018247;28;20986;-59
2023/10/31 10:56:10;;;;;;;9.10;1.53;;;13.60;98.00;;;;;;5014229;28;20460;-60
2023/10/31 10:58:52;;;;;;;1.60;1.43;;;13.70;98.00;;;;;;4996668;28;20451;-58
2023/10/31 11:01:20;;;;;;;2.53;2.00;;;13.70;98.00;;;;;;5021632;28;20498;-59
2023/10/31 11:03:48;;;;;;;1.77;1.47;;;13.70;98.00;;;;;;5034166;28;20467;-59
2023/10/31 11:06:16;;;;;;;1.90;1.60;;;13.90;98.00;;;;;;5034006;28;20461;-61
2023/10/31 11:08:45;;;;;;;5.20;1.93;;;13.90;98.00;;;;;;5033831;28;20557;-61
2023/10/31 11:11:17;;;;;;;2.07;1.50;;;13.90;98.00;;;;;;5034064;28;20462;-62
2023/10/31 11:13:45;;;;;;;2.60;1.60;;;14.00;98.00;;;;;;5034010;28;20566;-63
2023/10/31 11:16:18;;;;;;;1.67;1.40;;;14.00;98.00;;;;;;5034011;28;20489;-61
2023/10/31 11:18:46;;;;;;;3.00;1.60;;;14.10;98.00;;;;;;5033823;28;20464;-59
2023/10/31 11:21:13;;;;;;;3.33;1.40;;;14.10;98.00;;;;;;5033617;28;21007;-61
2023/10/31 11:23:40;;;;;;;2.30;1.37;;;13.90;98.00;;;;;;5033563;28;20471;-61
2023/10/31 11:26:09;;;;;;;2.77;1.80;;;13.70;98.00;;;;;;5034041;28;20464;-60
2023/10/31 11:28:41;;;;;;;2.00;1.47;;;13.60;98.00;;;;;;5034179;28;21151;-61
2023/10/31 11:31:10;;;;;;;2.60;1.40;;;13.70;98.00;;;;;;5034279;28;20463;-61
2023/10/31 11:33:42;;;;;;;3.47;1.83;;;13.70;98.00;;;;;;5034116;28;20482;-62
2023/10/31 11:36:12;;;;;;;3.70;1.60;;;13.80;98.00;;;;;;5034358;28;20860;-61
2023/10/31 11:38:39;;;;;;;1.87;1.40;;;13.80;98.00;;;;;;5034142;28;21032;-61
2023/10/31 11:41:08;;;;;;;5.60;1.80;;;13.90;98.00;;;;;;5034104;28;20457;-61
2023/10/31 11:43:53;;;;;;;1.60;1.50;;;14.00;98.00;;;;;;5033478;28;20447;-61
2023/10/31 11:46:22;;;;;;;3.20;1.60;;;13.90;98.00;;;;;;5034202;28;20490;-61
2023/10/31 11:48:52;;;;;;;2.97;1.70;;;14.00;98.00;;;;;;5033708;28;20456;-61
2023/10/31 11:51:19;;;;;;;3.17;1.60;;;14.00;98.00;;;;;;5033796;28;20545;-61
2023/10/31 11:53:47;;;;;;;2.10;1.60;;;14.10;98.00;;;;;;5033858;28;20480;-62
2023/10/31 11:56:15;;;;;;;3.37;1.90;;;14.10;98.00;;;;;;5033984;28;20449;-60
2023/10/31 11:58:42;;;;;;;1.60;1.40;;;14.10;98.00;;;;;;5033835;28;20457;-61
2023/10/31 12:01:12;;;;;;;5.80;1.87;;;14.10;98.00;;;;;;5015926;28;20457;-61
2023/10/31 12:03:39;;;;;;;4.30;1.47;;;14.00;98.00;;;;;;5033802;28;20463;-61
2023/10/31 12:06:10;;;;;;;3.37;1.50;;;13.90;98.00;;;;;;5033709;28;20458;-60
2023/10/31 12:08:38;;;;;;;2.43;1.70;;;13.80;98.00;;;;;;5033760;28;20452;-61
2023/10/31 12:11:07;;;;;;;1.50;1.40;;;13.80;98.00;;;;;;5033686;28;20453;-61
2023/10/31 12:13:35;;;;;;;2.03;1.70;;;13.80;98.00;;;;;;5033526;28;20496;-61
2023/10/31 12:16:03;;;;;;;3.57;2.00;;;13.80;98.00;;;;;;5033688;28;20530;-61
2023/10/31 12:18:31;;;;;;;1.90;1.67;;;13.80;98.00;;;;;;5033323;28;20462;-61
2023/10/31 12:20:58;;;;;;;3.10;1.90;;;13.60;98.00;;;;;;5033279;28;20915;-61
2023/10/31 12:23:25;;;;;;;1.77;1.60;;;13.60;98.00;;;;;;5015749;28;20514;-61
2023/10/31 12:25:54;;;;;;;1.60;1.57;;;13.70;98.00;;;;;;5033380;28;20455;-60
2023/10/31 12:28:21;;;;;;;4.00;1.97;;;13.70;98.00;;;;;;5033116;28;20490;-61
2023/10/31 12:30:49;;;;;;;3.87;1.70;;;13.80;98.00;;;;;;5033104;28;20947;-60
2023/10/31 12:33:17;;;;;;;2.27;1.97;;;13.70;98.00;;;;;;5033215;28;20565;-61
2023/10/31 12:35:46;;;;;;;3.00;1.90;;;13.70;98.00;;;;;;5032896;28;20460;-61
2023/10/31 12:38:14;;;;;;;2.20;1.70;;;13.70;98.00;;;;;;5032690;28;20452;-61
2023/10/31 12:40:43;;;;;;;2.60;1.80;;;13.80;98.00;;;;;;5032423;28;20452;-61
2023/10/31 12:43:11;;;;;;;2.60;1.80;;;13.80;98.00;;;;;;5032584;28;20512;-61
2023/10/31 12:45:38;;;;;;;2.67;1.90;;;13.80;98.00;;;;;;5032090;28;20457;-61
2023/10/31 12:48:08;;;;;;;3.87;2.10;;;13.90;98.00;;;;;;5032284;28;20453;-61
2023/10/31 12:50:37;;;;;;;4.30;2.07;;;13.80;98.00;;;;;;5032094;28;20522;-61
2023/10/31 12:53:06;;;;;;;4.27;2.30;;;13.70;98.00;;;;;;5031949;28;20570;-61